Time;durP1;ratioP1;P1;durP2;ratioP2;P2;SDS_P1;SDS_P2;PMS_P1;PMS_P2;Temp;Humidity;BMP_temperature;BMP_pressure;BME280_temperature;BME280_humidity;BME280_pressure;Samples;Min_cycle;Max_cycle;Signal;HPM_P1;HPM_P2
2022/04/16 00:00:06;;;;;;;35.83;29.23;;;6.70;99.90;;;;;;5054264;28;20105;-76
2022/04/16 00:02:32;;;;;;;35.05;29.92;;;6.80;99.90;;;;;;5054108;28;20035;-75
2022/04/16 00:04:58;;;;;;;47.13;31.48;;;6.70;99.90;;;;;;5036326;28;20123;-77
2022/04/16 00:07:24;;;;;;;37.67;31.20;;;6.60;99.90;;;;;;5054149;28;20116;-76
2022/04/16 00:09:49;;;;;;;38.40;31.10;;;6.60;99.90;;;;;;5054231;28;20049;-76
2022/04/16 00:12:15;;;;;;;37.42;31.92;;;6.60;99.90;;;;;;5053811;28;20104;-76
2022/04/16 00:14:41;;;;;;;42.63;35.55;;;6.70;99.90;;;;;;5053676;28;20040;-76
2022/04/16 00:17:07;;;;;;;39.25;31.95;;;6.70;99.90;;;;;;5053780;28;20492;-75
2022/04/16 00:19:33;;;;;;;42.35;33.40;;;6.70;99.90;;;;;;5050684;28;20037;-76
2022/04/16 00:22:07;;;;;;;41.20;33.75;;;6.60;99.90;;;;;;5053443;28;20115;-76
2022/04/16 00:24:33;;;;;;;41.30;34.63;;;6.60;99.90;;;;;;5053841;28;20398;-75
2022/04/16 00:26:59;;;;;;;44.90;36.65;;;6.50;99.90;;;;;;5035507;28;20457;-78
2022/04/16 00:29:26;;;;;;;38.03;27.77;;;6.60;99.90;;;;;;5042087;28;20021;-75
2022/04/16 00:31:52;;;;;;;43.08;37.72;;;6.60;99.90;;;;;;5033661;28;20022;-76
2022/04/16 00:34:19;;;;;;;47.28;39.75;;;6.50;99.90;;;;;;5015539;28;20231;-77
2022/04/16 00:36:45;;;;;;;45.80;38.90;;;6.60;99.90;;;;;;5045901;28;20488;-75
2022/04/16 00:39:11;;;;;;;46.33;34.63;;;6.60;99.90;;;;;;5053366;28;20155;-78
2022/04/16 00:41:39;;;;;;;48.55;38.60;;;6.60;99.90;;;;;;5053511;28;20013;-77
2022/04/16 00:44:05;;;;;;;52.25;41.22;;;6.60;99.90;;;;;;5052733;28;20040;-76
2022/04/16 00:46:31;;;;;;;56.38;42.40;;;6.60;99.90;;;;;;5054256;28;20091;-79
2022/04/16 00:48:57;;;;;;;50.85;40.08;;;6.60;99.90;;;;;;5053795;28;20067;-77
2022/04/16 00:51:24;;;;;;;53.30;41.17;;;6.60;99.90;;;;;;5053289;28;20032;-79
2022/04/16 00:53:50;;;;;;;53.70;42.58;;;6.60;99.90;;;;;;5053366;28;20398;-77
2022/04/16 00:56:16;;;;;;;60.00;42.08;;;6.60;99.90;;;;;;5053330;28;20055;-76
2022/04/16 00:58:42;;;;;;;51.60;41.17;;;6.60;99.90;;;;;;5053631;28;20482;-77
2022/04/16 01:01:09;;;;;;;52.45;42.55;;;6.70;99.90;;;;;;5053782;28;20031;-78
2022/04/16 01:03:35;;;;;;;56.25;40.63;;;6.80;99.90;;;;;;5052865;28;20124;-77
2022/04/16 01:06:01;;;;;;;48.85;40.50;;;6.80;99.90;;;;;;5034973;28;20112;-78
2022/04/16 01:08:27;;;;;;;45.85;39.08;;;6.90;99.90;;;;;;5052161;28;20035;-78
2022/04/16 01:10:53;;;;;;;41.53;35.70;;;6.90;99.90;;;;;;5052675;28;20029;-78
2022/04/16 01:13:19;;;;;;;38.67;34.42;;;6.90;99.90;;;;;;5052620;28;20497;-78
2022/04/16 01:15:45;;;;;;;35.97;31.63;;;6.80;99.90;;;;;;5052265;28;20900;-77
2022/04/16 01:18:12;;;;;;;34.80;30.80;;;6.70;99.90;;;;;;5033006;28;20067;-77
2022/04/16 01:20:39;;;;;;;33.27;28.67;;;6.70;99.90;;;;;;5052826;28;20071;-77
2022/04/16 01:23:05;;;;;;;30.40;26.92;;;6.60;99.90;;;;;;5052325;28;20041;-78
2022/04/16 01:25:33;;;;;;;34.22;28.33;;;6.60;99.90;;;;;;5034583;28;20108;-79
2022/04/16 01:28:01;;;;;;;;;;;6.60;99.90;;;;;;5052823;28;20033;-77
2022/04/16 01:30:27;;;;;;;29.42;24.77;;;6.50;99.90;;;;;;5052334;28;20007;-76
2022/04/16 01:32:53;;;;;;;26.73;21.58;;;6.60;99.90;;;;;;5052399;28;20021;-76
2022/04/16 01:35:19;;;;;;;23.15;20.27;;;6.40;99.90;;;;;;5052193;28;20060;-77
2022/04/16 01:37:45;;;;;;;18.58;15.40;;;6.40;99.90;;;;;;5052307;28;20104;-76
2022/04/16 01:40:14;;;;;;;22.70;17.98;;;6.30;99.90;;;;;;5052284;28;20458;-76
2022/04/16 01:42:41;;;;;;;21.35;19.05;;;6.20;99.90;;;;;;5052067;28;20025;-75
2022/04/16 01:45:11;;;;;;;;;;;6.30;99.90;;;;;;5052769;28;20335;-77
2022/04/16 01:47:38;;;;;;;16.88;15.02;;;6.20;99.90;;;;;;5052527;28;19932;-75
2022/04/16 01:50:07;;;;;;;12.75;11.48;;;6.20;99.90;;;;;;5052111;28;20025;-75
2022/04/16 01:52:34;;;;;;;14.27;12.40;;;6.10;99.90;;;;;;5052128;28;20052;-75
2022/04/16 01:55:00;;;;;;;14.13;12.65;;;5.90;99.90;;;;;;5051753;28;20055;-75
2022/04/16 01:57:26;;;;;;;11.95;10.73;;;5.80;99.90;;;;;;5051996;28;20449;-75
2022/04/16 01:59:53;;;;;;;12.38;11.18;;;5.70;99.90;;;;;;5052256;28;20033;-76
2022/04/16 02:02:22;;;;;;;7.60;6.88;;;5.60;99.90;;;;;;5052029;28;20025;-74
2022/04/16 02:04:47;;;;;;;8.98;8.00;;;5.50;99.90;;;;;;5052223;28;20083;-75
2022/04/16 02:07:13;;;;;;;10.23;8.82;;;5.40;99.90;;;;;;5051978;28;20471;-75
2022/04/16 02:09:42;;;;;;;7.38;6.03;;;5.30;99.90;;;;;;5051970;28;20033;-78
2022/04/16 02:12:08;;;;;;;10.48;8.40;;;5.20;99.90;;;;;;5033893;28;20479;-76
2022/04/16 02:14:34;;;;;;;9.45;6.22;;;5.10;99.90;;;;;;5033800;28;20028;-74
2022/04/16 02:17:00;;;;;;;7.32;5.78;;;4.90;99.90;;;;;;5051972;28;20335;-76
2022/04/16 02:19:27;;;;;;;8.45;7.65;;;4.80;99.90;;;;;;5037505;28;20394;-76
2022/04/16 02:21:53;;;;;;;10.45;7.55;;;4.70;99.90;;;;;;5035802;28;20021;-76
2022/04/16 02:24:18;;;;;;;7.60;6.88;;;4.70;99.90;;;;;;5036236;28;20549;-77
2022/04/16 02:26:44;;;;;;;7.88;6.18;;;4.60;99.90;;;;;;5054609;28;20037;-75
2022/04/16 02:29:12;;;;;;;7.28;5.40;;;4.50;99.90;;;;;;5055818;28;20029;-76
2022/04/16 02:31:37;;;;;;;7.65;6.57;;;4.50;99.90;;;;;;5055737;28;20475;-75
2022/04/16 02:34:05;;;;;;;8.75;6.18;;;4.40;99.90;;;;;;5055417;28;20106;-76
2022/04/16 02:36:32;;;;;;;6.95;6.25;;;4.40;99.90;;;;;;5055700;28;20056;-75
2022/04/16 02:38:58;;;;;;;7.00;5.50;;;4.40;99.90;;;;;;5055574;28;20029;-76
2022/04/16 02:41:26;;;;;;;6.40;5.43;;;4.30;99.90;;;;;;5055661;28;20616;-74
2022/04/16 02:43:54;;;;;;;5.18;4.57;;;4.20;99.90;;;;;;5055436;28;20048;-75
2022/04/16 02:49:10;;;;;;;5.10;4.57;;;4.00;99.90;;;;;;5055627;28;20055;-77
2022/04/16 02:51:35;;;;;;;6.03;5.43;;;4.00;99.90;;;;;;5055464;28;20467;-78
2022/04/16 02:54:01;;;;;;;6.93;6.22;;;4.00;99.90;;;;;;5055405;28;20025;-75
2022/04/16 02:56:27;;;;;;;6.05;5.45;;;4.00;99.90;;;;;;5055336;28;20029;-75
2022/04/16 02:58:53;;;;;;;5.13;4.70;;;3.90;99.90;;;;;;5055173;28;20027;-75
2022/04/16 03:01:19;;;;;;;6.00;5.43;;;3.90;99.90;;;;;;5055241;28;20029;-75
2022/04/16 03:03:44;;;;;;;6.78;6.18;;;3.90;99.90;;;;;;5037588;28;20025;-76
2022/04/16 03:06:10;;;;;;;6.15;5.55;;;3.90;99.90;;;;;;5052067;28;20064;-75
2022/04/16 03:08:36;;;;;;;4.70;4.30;;;3.90;99.90;;;;;;5055254;28;20027;-75
2022/04/16 03:11:04;;;;;;;3.55;3.25;;;3.80;99.90;;;;;;5037108;28;20040;-75
2022/04/16 03:13:30;;;;;;;;;;;3.70;99.90;;;;;;5055274;28;20033;-75
2022/04/16 03:18:40;;;;;;;4.22;3.83;;;3.40;99.90;;;;;;5034947;28;20036;-75
2022/04/16 03:21:06;;;;;;;3.10;2.80;;;3.40;99.90;;;;;;5035362;28;20108;-75
2022/04/16 03:23:31;;;;;;;4.22;3.78;;;3.40;99.90;;;;;;5035091;28;20030;-75
2022/04/16 03:26:00;;;;;;;4.80;4.35;;;3.20;99.90;;;;;;5034835;28;20053;-75
2022/04/16 03:28:26;;;;;;;4.43;4.03;;;3.30;99.90;;;;;;5053569;28;20070;-76
2022/04/16 03:30:53;;;;;;;4.53;4.13;;;3.30;99.90;;;;;;5054300;28;20111;-76
2022/04/16 03:33:19;;;;;;;4.35;3.95;;;3.40;99.90;;;;;;5037414;28;20390;-76
2022/04/16 03:35:45;;;;;;;7.38;3.88;;;3.50;99.90;;;;;;5055622;28;20434;-76
2022/04/16 03:38:11;;;;;;;6.07;4.68;;;3.50;99.90;;;;;;5054711;28;20051;-75
2022/04/16 03:40:38;;;;;;;4.30;3.90;;;3.50;99.90;;;;;;5054469;28;20025;-76
2022/04/16 03:43:03;;;;;;;3.75;3.08;;;3.40;99.90;;;;;;5054323;28;20037;-77
2022/04/16 03:45:34;;;;;;;4.93;3.47;;;3.40;99.90;;;;;;5054487;28;20031;-79
2022/04/16 03:48:02;;;;;;;4.10;3.15;;;3.30;99.90;;;;;;5054225;28;20017;-77
2022/04/16 03:50:29;;;;;;;7.25;4.65;;;3.30;99.90;;;;;;5054334;28;20029;-77
2022/04/16 03:52:56;;;;;;;3.33;3.03;;;3.30;99.90;;;;;;5054413;28;20025;-80
2022/04/16 04:00:53;;;;;;;7.53;5.28;;;2.90;99.90;;;;;;5039284;28;20473;-77
2022/04/16 04:03:20;;;;;;;7.13;4.38;;;2.90;99.90;;;;;;5036328;28;20194;-77
2022/04/16 04:05:49;;;;;;;6.28;3.95;;;2.90;99.90;;;;;;5054048;28;20021;-76
2022/04/16 04:08:16;;;;;;;6.40;3.95;;;2.90;99.90;;;;;;5053970;28;20033;-76
2022/04/16 04:10:42;;;;;;;4.07;2.67;;;3.00;99.90;;;;;;5054129;28;20040;-75
2022/04/16 04:13:08;;;;;;;12.32;6.60;;;2.90;99.90;;;;;;5053953;28;20033;-77
2022/04/16 04:15:34;;;;;;;10.38;5.25;;;2.80;99.90;;;;;;5053997;28;20036;-77
2022/04/16 04:18:01;;;;;;;2.60;2.40;;;2.80;99.90;;;;;;5053784;28;20108;-75
2022/04/16 04:20:28;;;;;;;3.10;2.10;;;2.90;99.90;;;;;;5053704;28;20032;-77
2022/04/16 04:22:54;;;;;;;9.70;6.00;;;2.90;99.90;;;;;;5053703;28;20294;-76
2022/04/16 04:25:20;;;;;;;2.47;2.22;;;2.80;99.90;;;;;;5053514;28;20254;-76
2022/04/16 04:27:46;;;;;;;2.20;1.98;;;2.90;99.90;;;;;;5035679;28;20493;-76
2022/04/16 04:30:12;;;;;;;2.03;1.38;;;2.90;99.90;;;;;;5054270;28;20029;-77
2022/04/16 04:32:38;;;;;;;3.15;2.10;;;3.00;99.90;;;;;;5053658;28;20020;-76
2022/04/16 04:35:05;;;;;;;1.35;1.20;;;2.90;99.90;;;;;;5053280;28;20118;-76
2022/04/16 04:37:31;;;;;;;2.38;1.48;;;2.90;99.90;;;;;;5053312;28;20388;-75
2022/04/16 04:39:56;;;;;;;3.03;1.77;;;3.00;99.90;;;;;;5035275;28;20076;-77
2022/04/16 04:42:33;;;;;;;2.42;1.98;;;3.00;99.90;;;;;;5052445;28;20467;-75
2022/04/16 04:45:06;;;;;;;1.75;1.60;;;2.80;99.90;;;;;;5052884;28;20112;-76
2022/04/16 04:47:32;;;;;;;3.92;1.92;;;2.80;99.90;;;;;;5034962;28;20078;-78
2022/04/16 04:49:57;;;;;;;2.60;2.10;;;2.80;99.90;;;;;;5052955;28;20037;-76
2022/04/16 04:52:29;;;;;;;1.70;1.60;;;2.80;99.90;;;;;;5053224;28;20033;-78
2022/04/16 04:54:59;;;;;;;3.13;2.47;;;2.80;99.90;;;;;;5052986;28;20036;-78
2022/04/16 04:57:25;;;;;;;3.05;2.15;;;2.80;99.90;;;;;;5052993;28;20017;-77
2022/04/16 04:59:51;;;;;;;3.22;2.05;;;2.70;99.90;;;;;;5052921;28;20028;-78
2022/04/16 05:02:17;;;;;;;3.10;2.45;;;2.80;99.90;;;;;;5052695;28;20096;-77
2022/04/16 05:04:43;;;;;;;4.70;2.85;;;2.90;99.90;;;;;;5051931;28;20028;-77
2022/04/16 05:07:09;;;;;;;3.50;2.78;;;2.90;99.90;;;;;;5034420;28;20438;-77
2022/04/16 05:09:35;;;;;;;2.38;2.17;;;2.90;99.90;;;;;;5032911;28;20032;-78
2022/04/16 05:12:01;;;;;;;6.35;4.22;;;2.90;99.90;;;;;;5032622;28;20025;-77
2022/04/16 05:14:27;;;;;;;2.47;2.15;;;2.80;99.90;;;;;;5032714;28;20035;-79
2022/04/16 05:16:53;;;;;;;2.67;2.40;;;2.80;99.90;;;;;;5032782;28;20068;-77
2022/04/16 05:19:19;;;;;;;2.28;1.92;;;2.80;99.90;;;;;;5033054;28;20060;-77
2022/04/16 05:21:44;;;;;;;5.80;2.15;;;2.80;99.90;;;;;;5033616;28;20058;-77
2022/04/16 05:24:11;;;;;;;2.70;2.17;;;2.80;99.90;;;;;;5033952;28;20505;-77
2022/04/16 05:26:39;;;;;;;4.72;3.40;;;2.70;99.90;;;;;;5032662;28;20101;-77
2022/04/16 05:29:07;;;;;;;2.97;2.50;;;2.70;99.90;;;;;;5032717;28;20029;-77
2022/04/16 05:31:34;;;;;;;2.88;2.53;;;2.70;99.90;;;;;;5032685;28;20026;-77
2022/04/16 05:34:18;;;;;;;2.35;2.15;;;2.70;99.90;;;;;;5032378;28;20055;-78
2022/04/16 05:36:46;;;;;;;2.38;2.17;;;2.70;99.90;;;;;;5047131;28;20437;-76
2022/04/16 05:39:12;;;;;;;;;;;2.80;99.90;;;;;;5035256;28;20459;-77
2022/04/16 05:41:37;;;;;;;4.00;2.08;;;2.90;99.90;;;;;;5052320;28;19967;-76
2022/04/16 05:44:05;;;;;;;2.30;2.10;;;2.90;99.90;;;;;;5052095;28;20079;-78
2022/04/16 05:46:31;;;;;;;5.30;3.40;;;3.00;99.90;;;;;;5052177;28;20019;-76
2022/04/16 05:48:57;;;;;;;2.53;2.33;;;2.90;99.90;;;;;;5051804;28;20474;-76
2022/04/16 05:51:25;;;;;;;4.95;2.78;;;2.90;99.90;;;;;;5052071;28;20469;-77
2022/04/16 05:53:52;;;;;;;3.80;2.72;;;2.80;99.90;;;;;;5051919;28;20021;-77
2022/04/16 05:56:18;;;;;;;3.00;2.30;;;2.80;99.90;;;;;;5033429;28;20115;-76
2022/04/16 05:58:44;;;;;;;4.28;3.63;;;2.90;99.90;;;;;;5051924;28;20033;-78
2022/04/16 06:01:11;;;;;;;9.75;3.92;;;3.00;99.90;;;;;;5051745;28;20025;-78
2022/04/16 06:03:39;;;;;;;2.53;2.22;;;2.90;99.90;;;;;;5051858;28;20033;-77
2022/04/16 06:06:05;;;;;;;2.83;2.45;;;2.90;99.90;;;;;;5051637;28;20171;-78
2022/04/16 06:08:31;;;;;;;2.28;2.13;;;3.00;99.90;;;;;;5034361;28;20452;-76
2022/04/16 06:10:57;;;;;;;4.03;3.10;;;3.20;99.90;;;;;;5052164;28;20029;-77
2022/04/16 06:13:23;;;;;;;2.30;2.10;;;3.20;99.90;;;;;;5052822;28;20033;-77
2022/04/16 06:15:48;;;;;;;3.83;2.42;;;3.10;99.90;;;;;;5034428;28;20460;-77
2022/04/16 06:18:14;;;;;;;7.80;4.18;;;3.00;99.90;;;;;;5052239;28;20067;-78
2022/04/16 06:20:40;;;;;;;5.53;2.95;;;2.80;99.90;;;;;;5051941;28;20048;-78
2022/04/16 06:23:08;;;;;;;4.18;2.85;;;2.80;99.90;;;;;;5051834;28;20032;-79
2022/04/16 06:25:34;;;;;;;3.42;2.53;;;2.90;99.90;;;;;;5051977;28;20056;-78
2022/04/16 06:28:00;;;;;;;11.63;6.25;;;2.90;99.90;;;;;;5051988;28;20025;-78
2022/04/16 06:30:27;;;;;;;13.23;6.10;;;2.90;99.90;;;;;;5051841;28;20455;-79
2022/04/16 06:32:53;;;;;;;2.65;2.13;;;3.00;99.90;;;;;;5051782;28;20029;-79
2022/04/16 06:35:19;;;;;;;4.65;2.88;;;2.90;99.90;;;;;;5051325;28;20069;-76
2022/04/16 06:37:45;;;;;;;6.85;2.33;;;2.90;99.90;;;;;;5051341;28;20021;-78
2022/04/16 06:40:11;;;;;;;2.88;2.15;;;3.00;99.90;;;;;;5052307;28;20032;-76
2022/04/16 06:42:38;;;;;;;3.47;2.80;;;3.10;99.90;;;;;;5052878;28;20041;-80
2022/04/16 06:45:08;;;;;;;2.25;1.92;;;3.20;99.90;;;;;;5053630;28;20494;-79
2022/04/16 06:47:36;;;;;;;3.45;2.90;;;3.10;99.90;;;;;;5051159;28;20122;-78
2022/04/16 06:50:03;;;;;;;2.33;2.13;;;3.20;99.90;;;;;;5051288;28;20021;-79
2022/04/16 06:52:29;;;;;;;;;;;3.30;99.90;;;;;;5017689;28;20513;-78
2022/04/16 06:54:59;;;;;;;2.35;1.90;;;3.40;99.90;;;;;;5051434;28;19905;-76
2022/04/16 06:57:25;;;;;;;4.32;2.55;;;3.50;99.90;;;;;;5051222;28;20021;-79
2022/04/16 06:59:51;;;;;;;3.17;2.88;;;3.40;99.90;;;;;;5051345;28;20055;-78
2022/04/16 07:02:17;;;;;;;3.75;2.75;;;3.30;99.90;;;;;;5051202;28;20021;-79
2022/04/16 07:04:43;;;;;;;3.25;2.42;;;3.30;99.90;;;;;;5051133;28;20099;-77
2022/04/16 07:07:08;;;;;;;2.85;2.10;;;3.30;99.90;;;;;;5033365;28;20124;-76
2022/04/16 07:09:38;;;;;;;2.78;2.50;;;3.50;99.90;;;;;;5055001;28;20397;-77
2022/04/16 07:12:09;;;;;;;3.60;2.33;;;3.50;99.90;;;;;;5054880;28;20082;-77
2022/04/16 07:14:36;;;;;;;4.57;2.63;;;3.50;99.90;;;;;;5037392;28;20048;-77
2022/04/16 07:17:02;;;;;;;5.93;3.55;;;3.60;99.90;;;;;;5055945;28;20021;-77
2022/04/16 07:19:31;;;;;;;4.20;3.33;;;3.50;99.80;;;;;;5055640;28;20079;-77
2022/04/16 07:21:57;;;;;;;4.05;2.50;;;3.50;99.90;;;;;;5054681;28;20040;-77
2022/04/16 07:24:25;;;;;;;4.25;2.78;;;3.50;99.90;;;;;;5036671;28;20091;-77
2022/04/16 07:26:53;;;;;;;2.83;2.03;;;3.40;99.80;;;;;;5054753;28;20021;-76
2022/04/16 07:29:20;;;;;;;6.25;4.32;;;3.40;99.40;;;;;;5054947;28;20114;-77
2022/04/16 07:31:45;;;;;;;3.40;2.25;;;3.30;99.70;;;;;;5054655;28;20509;-78
2022/04/16 07:34:11;;;;;;;2.67;2.25;;;3.30;99.80;;;;;;5036277;28;20106;-76
2022/04/16 07:36:37;;;;;;;8.70;4.03;;;3.20;99.80;;;;;;5054544;28;20072;-78
2022/04/16 07:39:04;;;;;;;1.85;1.70;;;3.20;99.90;;;;;;5054615;28;20033;-78
2022/04/16 07:41:30;;;;;;;3.95;2.05;;;3.10;99.90;;;;;;5054274;28;20025;-76
2022/04/16 07:44:02;;;;;;;3.25;2.20;;;3.10;99.90;;;;;;5054143;28;20514;-77
2022/04/16 07:46:28;;;;;;;2.40;1.70;;;3.00;99.90;;;;;;5054247;28;20013;-76
2022/04/16 07:48:56;;;;;;;2.05;1.85;;;3.10;99.90;;;;;;5049040;28;20109;-78
2022/04/16 07:51:22;;;;;;;1.85;1.55;;;3.00;99.90;;;;;;5033717;28;20385;-77
2022/04/16 07:53:47;;;;;;;2.80;1.70;;;3.00;99.90;;;;;;5033775;28;20026;-78
2022/04/16 07:56:13;;;;;;;1.92;1.83;;;2.90;99.90;;;;;;5033334;28;20041;-79
2022/04/16 07:58:39;;;;;;;2.33;2.08;;;2.90;99.90;;;;;;5033541;28;20372;-78
2022/04/16 08:01:05;;;;;;;2.65;2.05;;;2.90;99.90;;;;;;5015344;28;20029;-80
2022/04/16 08:03:30;;;;;;;1.92;1.75;;;2.90;99.90;;;;;;5033464;28;20083;-78
2022/04/16 08:05:56;;;;;;;3.38;2.05;;;2.90;99.90;;;;;;5032642;28;20021;-78
2022/04/16 08:08:22;;;;;;;2.67;2.20;;;2.90;99.90;;;;;;5039054;28;20029;-79
2022/04/16 08:10:51;;;;;;;2.92;2.22;;;2.80;99.90;;;;;;5052652;28;20029;-77
2022/04/16 08:13:18;;;;;;;4.13;2.92;;;2.90;99.90;;;;;;5053755;28;20108;-79
2022/04/16 08:15:45;;;;;;;3.85;2.97;;;2.90;99.90;;;;;;5053651;28;20029;-80
2022/04/16 08:18:11;;;;;;;2.90;2.15;;;3.10;99.90;;;;;;5053890;28;20036;-78
2022/04/16 08:20:37;;;;;;;4.38;2.70;;;3.10;99.90;;;;;;5035397;28;20028;-78
2022/04/16 08:23:06;;;;;;;2.42;1.90;;;3.10;99.90;;;;;;5053475;28;20037;-79
2022/04/16 08:28:03;;;;;;;4.75;3.47;;;3.10;99.90;;;;;;5041178;28;20104;-76
2022/04/16 08:30:29;;;;;;;3.47;2.25;;;3.20;99.90;;;;;;5032448;28;20029;-76
2022/04/16 08:32:55;;;;;;;3.30;2.25;;;3.20;99.90;;;;;;5047995;28;20424;-77
2022/04/16 08:35:21;;;;;;;5.72;3.47;;;3.00;99.90;;;;;;5053410;28;20041;-76
2022/04/16 08:37:49;;;;;;;2.92;2.55;;;2.90;99.90;;;;;;5053372;28;20029;-79
2022/04/16 08:40:17;;;;;;;5.07;3.83;;;2.90;99.90;;;;;;5053213;28;20059;-77
2022/04/16 08:42:45;;;;;;;2.63;2.42;;;3.00;99.90;;;;;;5052991;28;20029;-77
2022/04/16 08:45:12;;;;;;;3.15;1.88;;;3.00;99.90;;;;;;5035042;28;20536;-77
2022/04/16 08:47:39;;;;;;;15.73;3.97;;;3.00;99.90;;;;;;5052951;28;20060;-76
2022/04/16 08:50:07;;;;;;;8.90;4.38;;;3.00;99.90;;;;;;5053139;28;20082;-77
2022/04/16 08:52:35;;;;;;;4.57;2.78;;;3.00;99.90;;;;;;5053177;28;20078;-77
2022/04/16 08:55:04;;;;;;;10.38;4.15;;;3.10;99.90;;;;;;5053177;28;20028;-75
2022/04/16 08:57:30;;;;;;;4.75;2.60;;;3.10;99.90;;;;;;5053165;28;20104;-76
2022/04/16 08:59:57;;;;;;;5.30;2.60;;;3.00;99.90;;;;;;5053054;28;20482;-76
2022/04/16 09:02:25;;;;;;;4.35;3.40;;;3.00;99.90;;;;;;5036795;28;20112;-76
2022/04/16 09:05:06;;;;;;;4.50;3.08;;;3.10;99.90;;;;;;5035764;28;20513;-76
2022/04/16 09:07:51;;;;;;;3.63;2.65;;;3.10;99.90;;;;;;5042941;28;20060;-76
2022/04/16 09:10:17;;;;;;;6.90;3.58;;;3.00;99.90;;;;;;5057318;28;20409;-75
2022/04/16 09:12:45;;;;;;;7.85;4.57;;;3.10;99.90;;;;;;5073436;28;20397;-81
2022/04/16 09:15:13;;;;;;;4.30;2.90;;;3.10;99.90;;;;;;5084124;28;20021;-80
2022/04/16 09:17:41;;;;;;;4.97;3.33;;;3.10;99.90;;;;;;5077794;28;20128;-85
2022/04/16 09:20:15;;;;;;;5.47;2.77;;;3.20;99.90;;;;;;5055472;28;20091;-78
2022/04/16 09:22:48;;;;;;;2.10;1.83;;;3.30;99.90;;;;;;5054472;28;20162;-79
2022/04/16 09:25:16;;;;;;;3.33;2.25;;;3.40;99.90;;;;;;5037641;28;20035;-78
2022/04/16 09:27:45;;;;;;;6.70;2.88;;;3.40;99.90;;;;;;5056683;28;20021;-78
2022/04/16 09:30:13;;;;;;;5.68;3.28;;;3.40;99.90;;;;;;5055297;28;20029;-79
2022/04/16 09:32:46;;;;;;;4.07;3.28;;;3.50;99.90;;;;;;5053751;28;20134;-81
2022/04/16 09:35:33;;;;;;;3.58;3.00;;;3.50;99.90;;;;;;5053145;28;20044;-79
2022/04/16 09:38:12;;;;;;;7.93;3.92;;;3.60;99.50;;;;;;5034718;28;20494;-80
2022/04/16 09:40:38;;;;;;;4.50;2.88;;;3.60;99.40;;;;;;5035700;28;20066;-82
2022/04/16 09:43:05;;;;;;;7.03;4.80;;;3.50;99.20;;;;;;5052071;28;20040;-78
2022/04/16 09:45:32;;;;;;;9.43;3.08;;;3.40;99.30;;;;;;5031517;28;20025;-77
2022/04/16 09:47:59;;;;;;;5.95;3.42;;;3.40;99.60;;;;;;5052153;28;20025;-78
2022/04/16 09:50:29;;;;;;;6.35;3.83;;;3.50;99.40;;;;;;5042661;28;20132;-77
2022/04/16 09:53:02;;;;;;;3.25;2.60;;;3.40;99.10;;;;;;5032312;28;20387;-77
2022/04/16 09:55:28;;;;;;;2.40;2.20;;;3.40;99.20;;;;;;5031792;28;20025;-75
2022/04/16 09:58:01;;;;;;;6.47;2.95;;;3.30;99.00;;;;;;5031914;28;20398;-79
2022/04/16 10:00:29;;;;;;;5.45;3.55;;;3.30;99.20;;;;;;5014456;28;20025;-78
2022/04/16 10:02:56;;;;;;;2.40;2.20;;;3.40;99.30;;;;;;5031773;28;20100;-79
2022/04/16 10:05:22;;;;;;;4.45;2.97;;;3.50;99.30;;;;;;5044156;28;20381;-77
2022/04/16 10:07:49;;;;;;;4.25;2.92;;;3.60;98.70;;;;;;5054625;28;20383;-77
2022/04/16 10:10:18;;;;;;;3.20;2.72;;;3.60;98.30;;;;;;5071679;28;20478;-76
2022/04/16 10:13:05;;;;;;;5.20;3.85;;;3.60;98.20;;;;;;5054079;28;20039;-78
2022/04/16 10:16:04;;;;;;;3.28;2.67;;;3.60;97.70;;;;;;5055718;28;20451;-76
2022/04/16 10:18:33;;;;;;;3.38;3.08;;;3.70;97.80;;;;;;5044997;28;20414;-78
2022/04/16 10:21:03;;;;;;;6.60;4.65;;;3.70;97.50;;;;;;5050656;28;20463;-78
2022/04/16 10:23:40;;;;;;;7.35;4.13;;;3.60;97.50;;;;;;5051406;28;20037;-76
2022/04/16 10:26:06;;;;;;;11.25;4.65;;;3.50;97.90;;;;;;5033972;28;20021;-76
2022/04/16 10:28:44;;;;;;;6.57;2.60;;;3.50;97.60;;;;;;5051328;28;20132;-78
2022/04/16 10:31:28;;;;;;;3.80;3.35;;;3.50;97.90;;;;;;5033306;28;20364;-76
2022/04/16 10:33:58;;;;;;;3.13;2.28;;;3.50;97.90;;;;;;5051342;28;20056;-75
2022/04/16 10:36:37;;;;;;;3.38;2.55;;;3.60;97.70;;;;;;5049891;28;20446;-76
2022/04/16 10:39:19;;;;;;;3.83;2.15;;;3.70;97.70;;;;;;5051187;28;20052;-76
2022/04/16 10:42:00;;;;;;;3.25;2.45;;;3.60;96.80;;;;;;5041640;28;20108;-78
2022/04/16 10:44:27;;;;;;;3.75;2.80;;;3.60;96.80;;;;;;5055118;28;20459;-78
2022/04/16 10:46:54;;;;;;;3.97;3.08;;;3.60;96.90;;;;;;5055489;28;20104;-76
2022/04/16 10:49:31;;;;;;;3.03;2.72;;;3.70;97.10;;;;;;5055442;28;20445;-77
2022/04/16 10:51:57;;;;;;;3.30;2.75;;;3.80;97.20;;;;;;5037465;28;20029;-78
2022/04/16 10:54:36;;;;;;;3.88;3.30;;;3.90;96.30;;;;;;5055415;28;20029;-77
2022/04/16 10:57:06;;;;;;;4.70;3.63;;;3.80;96.50;;;;;;5055860;28;20087;-76
2022/04/16 10:59:43;;;;;;;3.92;2.30;;;3.80;96.50;;;;;;5037293;28;20025;-76
2022/04/16 11:02:26;;;;;;;3.60;2.70;;;3.90;96.40;;;;;;5055319;28;20029;-76
2022/04/16 11:05:07;;;;;;;5.30;2.83;;;3.80;96.30;;;;;;5056166;28;20136;-75
2022/04/16 11:07:35;;;;;;;4.07;2.83;;;3.80;96.50;;;;;;5055780;28;20033;-77
2022/04/16 11:10:06;;;;;;;4.13;2.75;;;3.80;96.00;;;;;;5054789;28;20021;-77
2022/04/16 11:12:32;;;;;;;6.45;4.07;;;3.80;96.10;;;;;;5058256;28;20023;-75
2022/04/16 11:14:59;;;;;;;3.42;2.55;;;3.90;96.10;;;;;;5070894;28;20036;-75
2022/04/16 11:17:24;;;;;;;4.93;3.20;;;3.80;95.90;;;;;;5054017;28;20091;-74
2022/04/16 11:20:00;;;;;;;4.10;3.42;;;3.70;96.10;;;;;;5053749;28;20029;-74
2022/04/16 11:22:25;;;;;;;3.72;2.80;;;3.80;96.50;;;;;;5053898;28;20360;-74
2022/04/16 11:24:52;;;;;;;4.43;2.10;;;3.70;96.00;;;;;;5054145;28;20078;-74
2022/04/16 11:35:57;;;;;;;3.70;2.90;;;3.70;95.90;;;;;;5052467;28;20056;-74
2022/04/16 11:38:29;;;;;;;2.22;2.00;;;3.70;95.80;;;;;;5053944;28;20017;-73
2022/04/16 11:40:56;;;;;;;4.63;2.78;;;3.70;95.80;;;;;;5053924;28;20032;-74
2022/04/16 11:43:28;;;;;;;2.85;1.73;;;3.60;95.80;;;;;;5054193;28;20033;-74
2022/04/16 11:45:57;;;;;;;2.78;2.25;;;3.60;95.50;;;;;;5053872;28;20462;-74
2022/04/16 11:48:23;;;;;;;2.60;2.25;;;3.60;95.80;;;;;;5053051;28;20032;-74
2022/04/16 11:50:50;;;;;;;3.10;2.00;;;3.70;95.60;;;;;;5054196;28;20021;-75
2022/04/16 11:53:15;;;;;;;2.78;1.73;;;3.80;95.50;;;;;;5053787;28;20036;-74
2022/04/16 11:55:46;;;;;;;3.47;2.03;;;3.90;95.30;;;;;;5054345;28;20025;-76
2022/04/16 11:58:12;;;;;;;4.95;2.33;;;3.80;95.00;;;;;;5053754;28;20473;-74
2022/04/16 12:00:55;;;;;;;2.45;2.08;;;3.80;94.80;;;;;;5053905;28;20028;-74
2022/04/16 12:03:22;;;;;;;3.65;3.00;;;3.80;95.00;;;;;;5052162;28;20052;-73
2022/04/16 12:05:50;;;;;;;2.55;1.90;;;3.80;94.80;;;;;;5020466;28;20518;-76
2022/04/16 12:08:19;;;;;;;3.55;2.30;;;3.90;94.70;;;;;;5034327;28;20056;-75
2022/04/16 12:11:04;;;;;;;2.63;2.25;;;3.90;94.50;;;;;;5038246;28;20029;-75
2022/04/16 12:13:41;;;;;;;2.88;1.95;;;3.80;94.70;;;;;;5053486;28;20514;-73
2022/04/16 12:16:09;;;;;;;4.25;2.22;;;3.70;94.80;;;;;;5053779;28;20020;-75
2022/04/16 12:18:36;;;;;;;;;;;3.70;95.00;;;;;;5054165;28;20021;-74
2022/04/16 12:21:07;;;;;;;4.10;1.52;;;3.60;95.20;;;;;;5051658;28;19933;-75
2022/04/16 12:23:33;;;;;;;3.70;2.15;;;3.60;95.40;;;;;;5033772;28;20041;-75
2022/04/16 12:26:11;;;;;;;4.65;2.65;;;3.70;95.70;;;;;;5035059;28;20021;-73
2022/04/16 12:28:43;;;;;;;2.67;2.13;;;3.80;95.20;;;;;;5035432;28;20035;-73
2022/04/16 12:31:09;;;;;;;3.35;2.20;;;3.80;95.00;;;;;;5053234;28;20635;-74
2022/04/16 12:33:35;;;;;;;1.33;1.25;;;3.80;95.10;;;;;;5052990;28;20057;-73
2022/04/16 12:36:01;;;;;;;4.60;1.83;;;3.70;95.10;;;;;;5053209;28;20053;-74
2022/04/16 12:38:27;;;;;;;2.00;1.52;;;3.60;95.20;;;;;;5053415;28;20078;-74
2022/04/16 12:41:10;;;;;;;3.05;1.70;;;3.60;94.90;;;;;;5052773;28;20029;-73
2022/04/16 12:43:40;;;;;;;2.10;1.50;;;3.60;94.80;;;;;;5046098;28;20072;-74
2022/04/16 12:46:06;;;;;;;2.58;2.08;;;3.70;94.70;;;;;;5033223;28;20022;-73
2022/04/16 12:48:32;;;;;;;3.22;1.95;;;3.80;94.70;;;;;;5040432;28;20104;-74
2022/04/16 12:50:58;;;;;;;2.88;1.48;;;3.80;94.70;;;;;;5052912;28;20021;-73
2022/04/16 12:53:25;;;;;;;2.72;1.90;;;3.80;94.50;;;;;;5041525;28;20088;-74
2022/04/16 12:55:51;;;;;;;3.85;1.48;;;3.80;95.00;;;;;;5034963;28;20108;-73
2022/04/16 12:58:17;;;;;;;2.75;2.40;;;3.70;95.30;;;;;;5052453;28;20132;-74
2022/04/16 13:00:45;;;;;;;4.38;2.03;;;3.50;95.90;;;;;;5034868;28;20477;-74
2022/04/16 13:03:12;;;;;;;5.07;1.80;;;3.40;96.10;;;;;;5052699;28;20087;-73
2022/04/16 13:05:38;;;;;;;4.65;1.63;;;3.40;96.30;;;;;;5034186;28;20018;-72
2022/04/16 13:08:04;;;;;;;3.70;1.83;;;3.40;96.30;;;;;;5032898;28;20128;-73
2022/04/16 13:10:30;;;;;;;3.22;2.25;;;3.40;96.40;;;;;;5047332;28;20025;-73
2022/04/16 13:12:59;;;;;;;1.98;1.75;;;3.30;96.60;;;;;;5052567;28;20025;-74
2022/04/16 13:15:25;;;;;;;1.50;1.13;;;3.30;96.90;;;;;;5035007;28;20082;-73
2022/04/16 13:17:51;;;;;;;2.65;1.85;;;3.20;97.00;;;;;;5049555;28;20100;-75
2022/04/16 13:20:16;;;;;;;2.58;1.77;;;3.20;96.70;;;;;;5032888;28;20124;-74